sensor_id;sensor_type;location;lat;lon;timestamp;pressure;altitude;pressure_sealevel;temperature;humidity
72157;BME280;60035;52.122;5.406;2023-02-23T00:00:26;101513.75;;;7.87;100.00
72157;BME280;60035;52.122;5.406;2023-02-23T00:02:58;101516.31;;;7.87;100.00
72157;BME280;60035;52.122;5.406;2023-02-23T00:05:28;101517.13;;;7.87;100.00
72157;BME280;60035;52.122;5.406;2023-02-23T00:07:55;101510.38;;;7.84;100.00
72157;BME280;60035;52.122;5.406;2023-02-23T00:10:23;101517.16;;;7.84;100.00
72157;BME280;60035;52.122;5.406;2023-02-23T00:12:59;101515.47;;;7.83;100.00
72157;BME280;60035;52.122;5.406;2023-02-23T00:15:26;101511.25;;;7.80;100.00
72157;BME280;60035;52.122;5.406;2023-02-23T00:17:53;101508.69;;;7.80;100.00
72157;BME280;60035;52.122;5.406;2023-02-23T00:20:24;101503.59;;;7.80;100.00
72157;BME280;60035;52.122;5.406;2023-02-23T00:22:54;101507.84;;;7.81;100.00
72157;BME280;60035;52.122;5.406;2023-02-23T00:25:22;101504.47;;;7.81;100.00
72157;BME280;60035;52.122;5.406;2023-02-23T00:27:50;101505.31;;;7.80;100.00
72157;BME280;60035;52.122;5.406;2023-02-23T00:30:18;101502.78;;;7.77;100.00
72157;BME280;60035;52.122;5.406;2023-02-23T00:32:45;101494.28;;;7.75;100.00
72157;BME280;60035;52.122;5.406;2023-02-23T00:35:12;101498.53;;;7.76;100.00
72157;BME280;60035;52.122;5.406;2023-02-23T00:37:46;101502.81;;;7.72;100.00
72157;BME280;60035;52.122;5.406;2023-02-23T00:40:15;101498.56;;;7.71;100.00
72157;BME280;60035;52.122;5.406;2023-02-23T00:42:46;101495.16;;;7.72;100.00
72157;BME280;60035;52.122;5.406;2023-02-23T00:45:13;101502.00;;;7.70;100.00
72157;BME280;60035;52.122;5.406;2023-02-23T00:47:42;101498.56;;;7.70;100.00
72157;BME280;60035;52.122;5.406;2023-02-23T00:50:11;101499.44;;;7.70;100.00
72157;BME280;60035;52.122;5.406;2023-02-23T00:52:39;101500.28;;;7.69;100.00
72157;BME280;60035;52.122;5.406;2023-02-23T00:55:08;101495.19;;;7.69;100.00
72157;BME280;60035;52.122;5.406;2023-02-23T00:57:35;101493.50;;;7.66;100.00
72157;BME280;60035;52.122;5.406;2023-02-23T01:00:10;101502.00;;;7.65;100.00
72157;BME280;60035;52.122;5.406;2023-02-23T01:02:44;101502.03;;;7.62;100.00
72157;BME280;60035;52.122;5.406;2023-02-23T01:05:11;101500.34;;;7.60;100.00
72157;BME280;60035;52.122;5.406;2023-02-23T01:07:39;101502.91;;;7.60;100.00
72157;BME280;60035;52.122;5.406;2023-02-23T01:10:06;101506.31;;;7.59;100.00
72157;BME280;60035;52.122;5.406;2023-02-23T01:12:49;101501.19;;;7.59;100.00
72157;BME280;60035;52.122;5.406;2023-02-23T01:15:18;101501.19;;;7.59;100.00
72157;BME280;60035;52.122;5.406;2023-02-23T01:17:45;101498.66;;;7.57;100.00
72157;BME280;60035;52.122;5.406;2023-02-23T01:20:14;101505.47;;;7.54;100.00
72157;BME280;60035;52.122;5.406;2023-02-23T01:22:47;101507.19;;;7.48;100.00
72157;BME280;60035;52.122;5.406;2023-02-23T01:25:14;101502.16;;;7.42;100.00
72157;BME280;60035;52.122;5.406;2023-02-23T01:27:42;101499.59;;;7.41;100.00
72157;BME280;60035;52.122;5.406;2023-02-23T01:30:13;101509.78;;;7.41;100.00
72157;BME280;60035;52.122;5.406;2023-02-23T01:32:40;101508.13;;;7.40;100.00
72157;BME280;60035;52.122;5.406;2023-02-23T01:35:08;101508.13;;;7.40;100.00
72157;BME280;60035;52.122;5.406;2023-02-23T01:37:36;101513.22;;;7.41;100.00
72157;BME280;60035;52.122;5.406;2023-02-23T01:40:20;101517.44;;;7.42;100.00
72157;BME280;60035;52.122;5.406;2023-02-23T01:43:05;101509.81;;;7.42;100.00
72157;BME280;60035;52.122;5.406;2023-02-23T01:45:38;101509.78;;;7.44;100.00
72157;BME280;60035;52.122;5.406;2023-02-23T01:48:08;101512.34;;;7.42;100.00
72157;BME280;60035;52.122;5.406;2023-02-23T01:53:30;101514.03;;;7.45;100.00
72157;BME280;60035;52.122;5.406;2023-02-23T01:56:04;101506.38;;;7.46;100.00
72157;BME280;60035;52.122;5.406;2023-02-23T01:58:32;101504.69;;;7.44;100.00
72157;BME280;60035;52.122;5.406;2023-02-23T02:00:59;101508.09;;;7.44;100.00
72157;BME280;60035;52.122;5.406;2023-02-23T02:03:36;101510.63;;;7.44;100.00
72157;BME280;60035;52.122;5.406;2023-02-23T02:06:05;101511.50;;;7.45;100.00
72157;BME280;60035;52.122;5.406;2023-02-23T02:08:36;101512.34;;;7.45;100.00
72157;BME280;60035;52.122;5.406;2023-02-23T02:11:11;101508.09;;;7.44;100.00
72157;BME280;60035;52.122;5.406;2023-02-23T02:13:58;101510.63;;;7.46;100.00
72157;BME280;60035;52.122;5.406;2023-02-23T02:22:16;101513.16;;;7.46;100.00
72157;BME280;60035;52.122;5.406;2023-02-23T02:39:17;101508.94;;;7.46;100.00
72157;BME280;60035;52.122;5.406;2023-02-23T02:42:02;101516.56;;;7.48;100.00
72157;BME280;60035;52.122;5.406;2023-02-23T02:44:43;101511.47;;;7.48;100.00
72157;BME280;60035;52.122;5.406;2023-02-23T02:47:40;101519.97;;;7.47;100.00
72157;BME280;60035;52.122;5.406;2023-02-23T02:50:21;101515.72;;;7.46;100.00
72157;BME280;60035;52.122;5.406;2023-02-23T02:52:55;101508.94;;;7.45;100.00
72157;BME280;60035;52.122;5.406;2023-02-23T02:55:27;101514.03;;;7.43;100.00
72157;BME280;60035;52.122;5.406;2023-02-23T02:57:56;101511.50;;;7.40;100.00
72157;BME280;60035;52.122;5.406;2023-02-23T03:00:38;101502.19;;;7.38;100.00
72157;BME280;60035;52.122;5.406;2023-02-23T03:06:14;101508.13;;;7.37;100.00
72157;BME280;60035;52.122;5.406;2023-02-23T03:12:01;101503.91;;;7.36;100.00
72157;BME280;60035;52.122;5.406;2023-02-23T03:15:25;101508.97;;;7.34;100.00
72157;BME280;60035;52.122;5.406;2023-02-23T03:19:07;101517.47;;;7.36;100.00
72157;BME280;60035;52.122;5.406;2023-02-23T03:21:49;101511.53;;;7.34;100.00
72157;BME280;60035;52.122;5.406;2023-02-23T03:24:37;101508.16;;;7.33;100.00
72157;BME280;60035;52.122;5.406;2023-02-23T03:30:26;101515.75;;;7.37;100.00
72157;BME280;60035;52.122;5.406;2023-02-23T03:33:18;101520.03;;;7.34;100.00
72157;BME280;60035;52.122;5.406;2023-02-23T03:36:17;101509.84;;;7.34;100.00
72157;BME280;60035;52.122;5.406;2023-02-23T03:42:12;101516.63;;;7.32;100.00
72157;BME280;60035;52.122;5.406;2023-02-23T03:45:04;101515.81;;;7.30;100.00
72157;BME280;60035;52.122;5.406;2023-02-23T03:47:52;101522.63;;;7.27;100.00
72157;BME280;60035;52.122;5.406;2023-02-23T03:50:45;101525.16;;;7.27;100.00
72157;BME280;60035;52.122;5.406;2023-02-23T03:54:02;101525.13;;;7.30;100.00
72157;BME280;60035;52.122;5.406;2023-02-23T03:56:50;101531.94;;;7.31;100.00
72157;BME280;60035;52.122;5.406;2023-02-23T03:59:41;101534.47;;;7.32;100.00
72157;BME280;60035;52.122;5.406;2023-02-23T04:02:29;101534.47;;;7.36;100.00
72157;BME280;60035;52.122;5.406;2023-02-23T04:05:17;101530.22;;;7.34;100.00
72157;BME280;60035;52.122;5.406;2023-02-23T04:08:08;101534.47;;;7.36;100.00
72157;BME280;60035;52.122;5.406;2023-02-23T04:11:04;101532.78;;;7.34;100.00
72157;BME280;60035;52.122;5.406;2023-02-23T04:13:59;101538.69;;;7.35;100.00
72157;BME280;60035;52.122;5.406;2023-02-23T04:16:29;101542.97;;;7.33;100.00
72157;BME280;60035;52.122;5.406;2023-02-23T04:19:00;101547.22;;;7.32;100.00
72157;BME280;60035;52.122;5.406;2023-02-23T04:21:26;101542.13;;;7.31;100.00
72157;BME280;60035;52.122;5.406;2023-02-23T04:23:53;101543.81;;;7.29;100.00
72157;BME280;60035;52.122;5.406;2023-02-23T04:26:19;101544.69;;;7.29;100.00
72157;BME280;60035;52.122;5.406;2023-02-23T04:28:46;101552.31;;;7.29;100.00
72157;BME280;60035;52.122;5.406;2023-02-23T04:31:12;101548.06;;;7.30;100.00
72157;BME280;60035;52.122;5.406;2023-02-23T04:33:39;101544.69;;;7.28;100.00
72157;BME280;60035;52.122;5.406;2023-02-23T04:36:06;101548.94;;;7.30;100.00
72157;BME280;60035;52.122;5.406;2023-02-23T04:38:32;101551.47;;;7.29;100.00
72157;BME280;60035;52.122;5.406;2023-02-23T04:40:58;101543.84;;;7.26;100.00
72157;BME280;60035;52.122;5.406;2023-02-23T04:43:25;101543.84;;;7.26;100.00
72157;BME280;60035;52.122;5.406;2023-02-23T04:45:51;101546.38;;;7.27;100.00
72157;BME280;60035;52.122;5.406;2023-02-23T04:48:18;101548.09;;;7.27;100.00
72157;BME280;60035;52.122;5.406;2023-02-23T04:50:45;101554.03;;;7.27;100.00
72157;BME280;60035;52.122;5.406;2023-02-23T04:53:11;101557.44;;;7.28;100.00
72157;BME280;60035;52.122;5.406;2023-02-23T04:55:38;101568.47;;;7.27;100.00
72157;BME280;60035;52.122;5.406;2023-02-23T04:58:04;101565.06;;;7.23;100.00
72157;BME280;60035;52.122;5.406;2023-02-23T05:00:31;101574.44;;;7.23;100.00
72157;BME280;60035;52.122;5.406;2023-02-23T05:02:59;101571.03;;;7.24;100.00
72157;BME280;60035;52.122;5.406;2023-02-23T05:05:25;101576.13;;;7.24;100.00
72157;BME280;60035;52.122;5.406;2023-02-23T05:07:52;101572.72;;;7.22;100.00
72157;BME280;60035;52.122;5.406;2023-02-23T05:10:20;101568.47;;;7.21;100.00
72157;BME280;60035;52.122;5.406;2023-02-23T05:12:47;101568.47;;;7.21;100.00
72157;BME280;60035;52.122;5.406;2023-02-23T05:15:13;101572.75;;;7.20;100.00
72157;BME280;60035;52.122;5.406;2023-02-23T05:17:40;101573.56;;;7.21;100.00
72157;BME280;60035;52.122;5.406;2023-02-23T05:20:11;101577.84;;;7.20;100.00
72157;BME280;60035;52.122;5.406;2023-02-23T05:22:39;101575.28;;;7.20;100.00
72157;BME280;60035;52.122;5.406;2023-02-23T05:25:06;101582.06;;;7.20;100.00
72157;BME280;60035;52.122;5.406;2023-02-23T05:27:33;101587.16;;;7.20;100.00
72157;BME280;60035;52.122;5.406;2023-02-23T05:30:00;101590.56;;;7.22;100.00
72157;BME280;60035;52.122;5.406;2023-02-23T05:32:27;101586.31;;;7.21;100.00
72157;BME280;60035;52.122;5.406;2023-02-23T05:34:55;101590.56;;;7.22;100.00
72157;BME280;60035;52.122;5.406;2023-02-23T05:37:21;101589.69;;;7.24;100.00
72157;BME280;60035;52.122;5.406;2023-02-23T05:39:48;101587.16;;;7.24;100.00
72157;BME280;60035;52.122;5.406;2023-02-23T05:42:15;101583.78;;;7.24;100.00
72157;BME280;60035;52.122;5.406;2023-02-23T05:44:41;101584.63;;;7.23;100.00
72157;BME280;60035;52.122;5.406;2023-02-23T05:47:07;101592.28;;;7.21;100.00
72157;BME280;60035;52.122;5.406;2023-02-23T05:49:34;101591.41;;;7.22;100.00
72157;BME280;60035;52.122;5.406;2023-02-23T05:52:00;101586.31;;;7.21;100.00
72157;BME280;60035;52.122;5.406;2023-02-23T05:54:28;101586.31;;;7.22;100.00
72157;BME280;60035;52.122;5.406;2023-02-23T05:56:54;101590.56;;;7.22;100.00
72157;BME280;60035;52.122;5.406;2023-02-23T05:59:21;101587.16;;;7.23;100.00
72157;BME280;60035;52.122;5.406;2023-02-23T06:01:47;101582.09;;;7.21;100.00
72157;BME280;60035;52.122;5.406;2023-02-23T06:04:13;101589.72;;;7.21;100.00
72157;BME280;60035;52.122;5.406;2023-02-23T06:06:40;101593.94;;;7.21;100.00
72157;BME280;60035;52.122;5.406;2023-02-23T06:09:06;101589.69;;;7.20;100.00
72157;BME280;60035;52.122;5.406;2023-02-23T06:11:33;101597.38;;;7.21;100.00
72157;BME280;60035;52.122;5.406;2023-02-23T06:13:59;101596.50;;;7.21;100.00
72157;BME280;60035;52.122;5.406;2023-02-23T06:16:26;101598.22;;;7.20;100.00
72157;BME280;60035;52.122;5.406;2023-02-23T06:18:53;101594.81;;;7.20;100.00
72157;BME280;60035;52.122;5.406;2023-02-23T06:21:20;101601.59;;;7.19;100.00
72157;BME280;60035;52.122;5.406;2023-02-23T06:23:46;101605.00;;;7.18;100.00
72157;BME280;60035;52.122;5.406;2023-02-23T06:26:13;101601.59;;;7.21;100.00
72157;BME280;60035;52.122;5.406;2023-02-23T06:28:39;101605.00;;;7.20;100.00
72157;BME280;60035;52.122;5.406;2023-02-23T06:31:06;101606.69;;;7.22;100.00
72157;BME280;60035;52.122;5.406;2023-02-23T06:33:33;101616.88;;;7.21;100.00
72157;BME280;60035;52.122;5.406;2023-02-23T06:35:59;101611.78;;;7.22;100.00
72157;BME280;60035;52.122;5.406;2023-02-23T06:38:25;101621.97;;;7.24;100.00
72157;BME280;60035;52.122;5.406;2023-02-23T06:40:53;101619.44;;;7.24;100.00
72157;BME280;60035;52.122;5.406;2023-02-23T06:43:19;101622.81;;;7.26;100.00
72157;BME280;60035;52.122;5.406;2023-02-23T06:45:48;101625.34;;;7.26;100.00
72157;BME280;60035;52.122;5.406;2023-02-23T06:48:15;101624.50;;;7.27;100.00
72157;BME280;60035;52.122;5.406;2023-02-23T06:50:42;101629.59;;;7.27;100.00
72157;BME280;60035;52.122;5.406;2023-02-23T06:53:09;101635.53;;;7.29;100.00
72157;BME280;60035;52.122;5.406;2023-02-23T06:55:35;101636.38;;;7.29;100.00
72157;BME280;60035;52.122;5.406;2023-02-23T06:58:02;101631.31;;;7.28;100.00
72157;BME280;60035;52.122;5.406;2023-02-23T07:00:30;101640.63;;;7.30;100.00
72157;BME280;60035;52.122;5.406;2023-02-23T07:02:56;101638.09;;;7.32;100.00
72157;BME280;60035;52.122;5.406;2023-02-23T07:05:23;101638.91;;;7.32;100.00
72157;BME280;60035;52.122;5.406;2023-02-23T07:07:49;101635.53;;;7.32;100.00
72157;BME280;60035;52.122;5.406;2023-02-23T07:10:17;101645.75;;;7.30;100.00
72157;BME280;60035;52.122;5.406;2023-02-23T07:12:43;101649.97;;;7.30;100.00
72157;BME280;60035;52.122;5.406;2023-02-23T07:15:10;101651.66;;;7.31;100.00
72157;BME280;60035;52.122;5.406;2023-02-23T07:17:37;101664.41;;;7.31;100.00
72157;BME280;60035;52.122;5.406;2023-02-23T07:20:04;101669.53;;;7.28;100.00
72157;BME280;60035;52.122;5.406;2023-02-23T07:22:30;101670.34;;;7.28;100.00
72157;BME280;60035;52.122;5.406;2023-02-23T07:24:59;101666.94;;;7.31;100.00
72157;BME280;60035;52.122;5.406;2023-02-23T07:27:25;101672.03;;;7.34;100.00
72157;BME280;60035;52.122;5.406;2023-02-23T07:29:52;101674.59;;;7.36;100.00
72157;BME280;60035;52.122;5.406;2023-02-23T07:32:19;101686.47;;;7.40;100.00
72157;BME280;60035;52.122;5.406;2023-02-23T07:34:45;101683.91;;;7.41;100.00
72157;BME280;60035;52.122;5.406;2023-02-23T07:37:12;101693.25;;;7.42;100.00
72157;BME280;60035;52.122;5.406;2023-02-23T07:39:39;101696.66;;;7.41;100.00
72157;BME280;60035;52.122;5.406;2023-02-23T07:42:05;101696.66;;;7.41;100.00
72157;BME280;60035;52.122;5.406;2023-02-23T07:44:32;101690.69;;;7.41;100.00
72157;BME280;60035;52.122;5.406;2023-02-23T07:46:58;101694.94;;;7.42;100.00
72157;BME280;60035;52.122;5.406;2023-02-23T07:49:25;101694.09;;;7.43;100.00
72157;BME280;60035;52.122;5.406;2023-02-23T07:51:51;101700.03;;;7.43;100.00
72157;BME280;60035;52.122;5.406;2023-02-23T07:54:18;101691.53;;;7.44;100.00
72157;BME280;60035;52.122;5.406;2023-02-23T07:56:45;101700.88;;;7.48;100.00
72157;BME280;60035;52.122;5.406;2023-02-23T07:59:11;101695.75;;;7.50;100.00
72157;BME280;60035;52.122;5.406;2023-02-23T08:01:37;101713.59;;;7.50;100.00
72157;BME280;60035;52.122;5.406;2023-02-23T08:04:04;101711.91;;;7.54;100.00
72157;BME280;60035;52.122;5.406;2023-02-23T08:06:31;101721.25;;;7.56;100.00
72157;BME280;60035;52.122;5.406;2023-02-23T08:08:58;101715.31;;;7.57;100.00
72157;BME280;60035;52.122;5.406;2023-02-23T08:11:26;101712.72;;;7.60;100.00
72157;BME280;60035;52.122;5.406;2023-02-23T08:13:56;101711.88;;;7.64;100.00
72157;BME280;60035;52.122;5.406;2023-02-23T08:16:30;101713.56;;;7.67;100.00
72157;BME280;60035;52.122;5.406;2023-02-23T08:19:00;101719.50;;;7.71;100.00
72157;BME280;60035;52.122;5.406;2023-02-23T08:21:27;101722.06;;;7.75;100.00
72157;BME280;60035;52.122;5.406;2023-02-23T08:23:55;101723.72;;;7.76;100.00
72157;BME280;60035;52.122;5.406;2023-02-23T08:26:22;101720.31;;;7.79;100.00
72157;BME280;60035;52.122;5.406;2023-02-23T08:28:51;101730.53;;;7.82;100.00
72157;BME280;60035;52.122;5.406;2023-02-23T08:31:17;101730.47;;;7.90;100.00
72157;BME280;60035;52.122;5.406;2023-02-23T08:33:47;101735.56;;;7.94;100.00
72157;BME280;60035;52.122;5.406;2023-02-23T08:36:14;101738.94;;;7.95;100.00
72157;BME280;60035;52.122;5.406;2023-02-23T08:38:40;101740.66;;;7.94;100.00
72157;BME280;60035;52.122;5.406;2023-02-23T08:41:07;101737.25;;;7.92;100.00
72157;BME280;60035;52.122;5.406;2023-02-23T08:43:33;101745.78;;;7.93;100.00
72157;BME280;60035;52.122;5.406;2023-02-23T08:46:00;101749.19;;;7.92;100.00
72157;BME280;60035;52.122;5.406;2023-02-23T08:48:26;101748.34;;;7.91;100.00
72157;BME280;60035;52.122;5.406;2023-02-23T08:50:57;101754.28;;;7.92;100.00
72157;BME280;60035;52.122;5.406;2023-02-23T08:53:24;101752.56;;;7.92;100.00
72157;BME280;60035;52.122;5.406;2023-02-23T08:56:00;101756.81;;;7.95;100.00
72157;BME280;60035;52.122;5.406;2023-02-23T08:58:28;101763.59;;;8.00;100.00
72157;BME280;60035;52.122;5.406;2023-02-23T09:00:56;101755.06;;;8.01;100.00
72157;BME280;60035;52.122;5.406;2023-02-23T09:03:24;101761.06;;;8.00;100.00
72157;BME280;60035;52.122;5.406;2023-02-23T09:05:51;101759.31;;;8.04;100.00
72157;BME280;60035;52.122;5.406;2023-02-23T09:08:19;101755.03;;;8.09;100.00
72157;BME280;60035;52.122;5.406;2023-02-23T09:10:45;101763.56;;;8.11;100.00
72157;BME280;60035;52.122;5.406;2023-02-23T09:13:13;101766.94;;;8.13;100.00
72157;BME280;60035;52.122;5.406;2023-02-23T09:15:39;101763.50;;;8.16;100.00
72157;BME280;60035;52.122;5.406;2023-02-23T09:18:09;101765.25;;;8.11;100.00
72157;BME280;60035;52.122;5.406;2023-02-23T09:20:40;101769.47;;;8.13;100.00
72157;BME280;60035;52.122;5.406;2023-02-23T09:23:07;101766.94;;;8.18;100.00
72157;BME280;60035;52.122;5.406;2023-02-23T09:25:39;101767.75;;;8.22;100.00
72157;BME280;60035;52.122;5.406;2023-02-23T09:28:16;101771.19;;;8.19;100.00
72157;BME280;60035;52.122;5.406;2023-02-23T09:30:44;101782.22;;;8.21;100.00
72157;BME280;60035;52.122;5.406;2023-02-23T09:33:12;101777.97;;;8.23;100.00
72157;BME280;60035;52.122;5.406;2023-02-23T09:35:39;101784.75;;;8.21;100.00
72157;BME280;60035;52.122;5.406;2023-02-23T09:38:07;101781.38;;;8.17;100.00
72157;BME280;60035;52.122;5.406;2023-02-23T09:43:29;101794.94;;;8.23;100.00
72157;BME280;60035;52.122;5.406;2023-02-23T09:48:54;101795.81;;;8.20;100.00
72157;BME280;60035;52.122;5.406;2023-02-23T09:51:22;101793.25;;;8.26;100.00
72157;BME280;60035;52.122;5.406;2023-02-23T09:53:59;101788.13;;;8.32;100.00
72157;BME280;60035;52.122;5.406;2023-02-23T09:56:37;101795.75;;;8.34;100.00
72157;BME280;60035;52.122;5.406;2023-02-23T09:59:11;101792.31;;;8.40;100.00
72157;BME280;60035;52.122;5.406;2023-02-23T10:04:37;101796.56;;;8.44;100.00
72157;BME280;60035;52.122;5.406;2023-02-23T10:13:06;101804.25;;;8.47;100.00
72157;BME280;60035;52.122;5.406;2023-02-23T10:18:51;101810.16;;;8.50;100.00
72157;BME280;60035;52.122;5.406;2023-02-23T10:21:39;101800.81;;;8.53;100.00
72157;BME280;60035;52.122;5.406;2023-02-23T10:26:46;101792.28;;;8.57;100.00
72157;BME280;60035;52.122;5.406;2023-02-23T10:34:43;101814.41;;;8.52;100.00
72157;BME280;60035;52.122;5.406;2023-02-23T10:37:12;101813.59;;;8.49;100.00
72157;BME280;60035;52.122;5.406;2023-02-23T10:39:41;101819.50;;;8.53;100.00
72157;BME280;60035;52.122;5.406;2023-02-23T10:42:14;101814.41;;;8.56;100.00
72157;BME280;60035;52.122;5.406;2023-02-23T10:44:44;101816.94;;;8.59;100.00
72157;BME280;60035;52.122;5.406;2023-02-23T10:47:15;101824.59;;;8.59;100.00
72157;BME280;60035;52.122;5.406;2023-02-23T10:49:46;101822.06;;;8.56;100.00
72157;BME280;60035;52.122;5.406;2023-02-23T10:52:25;101828.84;;;8.56;100.00
72157;BME280;60035;52.122;5.406;2023-02-23T10:54:53;101826.31;;;8.56;100.00
72157;BME280;60035;52.122;5.406;2023-02-23T10:57:26;101827.16;;;8.53;100.00
72157;BME280;60035;52.122;5.406;2023-02-23T11:00:04;101820.38;;;8.55;100.00
72157;BME280;60035;52.122;5.406;2023-02-23T11:02:32;101832.25;;;8.59;100.00
72157;BME280;60035;52.122;5.406;2023-02-23T11:05:02;101827.97;;;8.66;100.00
72157;BME280;60035;52.122;5.406;2023-02-23T11:07:31;101821.97;;;8.70;100.00
72157;BME280;60035;52.122;5.406;2023-02-23T11:10:26;101818.53;;;8.77;100.00
72157;BME280;60035;52.122;5.406;2023-02-23T11:12:52;101821.09;;;8.77;100.00
72157;BME280;60035;52.122;5.406;2023-02-23T11:18:05;101808.31;;;8.80;100.00
72157;BME280;60035;52.122;5.406;2023-02-23T11:20:39;101809.13;;;8.86;100.00
72157;BME280;60035;52.122;5.406;2023-02-23T11:23:33;101818.44;;;8.91;100.00
72157;BME280;60035;52.122;5.406;2023-02-23T11:26:05;101823.53;;;8.93;100.00
72157;BME280;60035;52.122;5.406;2023-02-23T11:28:51;101826.97;;;8.89;100.00
72157;BME280;60035;52.122;5.406;2023-02-23T11:31:21;101820.16;;;8.86;100.00
72157;BME280;60035;52.122;5.406;2023-02-23T11:33:52;101821.06;;;8.85;100.00
72157;BME280;60035;52.122;5.406;2023-02-23T11:41:39;101832.19;;;8.72;100.00
72157;BME280;60035;52.122;5.406;2023-02-23T11:44:05;101824.53;;;8.70;100.00
72157;BME280;60035;52.122;5.406;2023-02-23T11:46:36;101834.75;;;8.69;100.00
72157;BME280;60035;52.122;5.406;2023-02-23T11:49:08;101823.72;;;8.63;100.00
72157;BME280;60035;52.122;5.406;2023-02-23T11:51:40;101822.06;;;8.58;100.00
72157;BME280;60035;52.122;5.406;2023-02-23T11:54:31;101828.88;;;8.53;100.00
72157;BME280;60035;52.122;5.406;2023-02-23T11:57:01;101823.78;;;8.43;100.00
72157;BME280;60035;52.122;5.406;2023-02-23T11:59:37;101834.03;;;8.37;100.00
72157;BME280;60035;52.122;5.406;2023-02-23T12:02:28;101828.97;;;8.31;100.00
72157;BME280;60035;52.122;5.406;2023-02-23T12:07:50;101828.97;;;8.28;100.00
72157;BME280;60035;52.122;5.406;2023-02-23T12:10:38;101830.69;;;8.23;100.00
72157;BME280;60035;52.122;5.406;2023-02-23T12:15:57;101830.72;;;8.18;100.00
72157;BME280;60035;52.122;5.406;2023-02-23T12:18:43;101826.44;;;8.20;100.00
72157;BME280;60035;52.122;5.406;2023-02-23T12:23:46;101836.63;;;8.25;100.00
72157;BME280;60035;52.122;5.406;2023-02-23T12:26:19;101832.38;;;8.30;100.00
72157;BME280;60035;52.122;5.406;2023-02-23T12:31:37;101829.78;;;8.33;100.00
72157;BME280;60035;52.122;5.406;2023-02-23T12:34:23;101828.03;;;8.41;100.00
72157;BME280;60035;52.122;5.406;2023-02-23T12:36:56;101828.06;;;8.46;100.00
72157;BME280;60035;52.122;5.406;2023-02-23T12:39:34;101816.16;;;8.46;100.00
72157;BME280;60035;52.122;5.406;2023-02-23T12:42:19;101818.69;;;8.51;100.00
72157;BME280;60035;52.122;5.406;2023-02-23T12:44:54;101822.06;;;8.56;100.00
72157;BME280;60035;52.122;5.406;2023-02-23T12:47:53;101828.84;;;8.62;100.00
72157;BME280;60035;52.122;5.406;2023-02-23T12:50:30;101833.91;;;8.68;100.00
72157;BME280;60035;52.122;5.406;2023-02-23T12:53:05;101828.78;;;8.73;100.00
72157;BME280;60035;52.122;5.406;2023-02-23T12:55:58;101835.59;;;8.72;100.00
72157;BME280;60035;52.122;5.406;2023-02-23T12:58:40;101833.03;;;8.69;100.00
72157;BME280;60035;52.122;5.406;2023-02-23T13:09:02;101822.81;;;8.72;100.00
72157;BME280;60035;52.122;5.406;2023-02-23T13:11:45;101818.56;;;8.73;100.00
72157;BME280;60035;52.122;5.406;2023-02-23T13:14:28;101819.41;;;8.76;100.00
72157;BME280;60035;52.122;5.406;2023-02-23T13:17:16;101814.25;;;8.84;100.00
72157;BME280;60035;52.122;5.406;2023-02-23T13:19:49;101814.19;;;8.89;100.00
72157;BME280;60035;52.122;5.406;2023-02-23T13:22:25;101816.75;;;8.93;100.00
72157;BME280;60035;52.122;5.406;2023-02-23T13:24:57;101814.13;;;9.01;100.00
72157;BME280;60035;52.122;5.406;2023-02-23T13:29:55;101803.78;;;9.16;100.00
72157;BME280;60035;52.122;5.406;2023-02-23T13:32:27;101804.63;;;9.17;100.00
72157;BME280;60035;52.122;5.406;2023-02-23T13:34:58;101796.97;;;9.19;100.00
72157;BME280;60035;52.122;5.406;2023-02-23T13:46:08;101813.13;;;9.19;100.00
72157;BME280;60035;52.122;5.406;2023-02-23T13:48:58;101811.44;;;9.20;100.00
72157;BME280;60035;52.122;5.406;2023-02-23T13:51:38;101810.56;;;9.21;100.00
72157;BME280;60035;52.122;5.406;2023-02-23T13:54:23;101817.44;;;9.15;100.00
72157;BME280;60035;52.122;5.406;2023-02-23T13:57:02;101813.16;;;9.16;100.00
72157;BME280;60035;52.122;5.406;2023-02-23T13:59:36;101809.78;;;9.11;100.00
72157;BME280;60035;52.122;5.406;2023-02-23T14:02:33;101819.19;;;9.06;100.00
72157;BME280;60035;52.122;5.406;2023-02-23T14:05:19;101818.38;;;9.04;100.00
72157;BME280;60035;52.122;5.406;2023-02-23T14:07:50;101825.19;;;9.00;100.00
72157;BME280;60035;52.122;5.406;2023-02-23T14:10:23;101824.38;;;8.96;100.00
72157;BME280;60035;52.122;5.406;2023-02-23T14:13:06;101821.00;;;8.94;100.00
72157;BME280;60035;52.122;5.406;2023-02-23T14:18:01;101830.38;;;8.91;100.00
72157;BME280;60035;52.122;5.406;2023-02-23T14:23:26;101834.56;;;9.03;100.00
72157;BME280;60035;52.122;5.406;2023-02-23T14:32:02;101830.19;;;9.14;100.00
72157;BME280;60035;52.122;5.406;2023-02-23T14:37:23;101831.91;;;9.13;100.00
72157;BME280;60035;52.122;5.406;2023-02-23T14:39:54;101827.72;;;9.06;100.00
72157;BME280;60035;52.122;5.406;2023-02-23T14:42:25;101832.84;;;9.06;100.00
72157;BME280;60035;52.122;5.406;2023-02-23T14:44:53;101830.28;;;9.02;100.00
72157;BME280;60035;52.122;5.406;2023-02-23T14:47:22;101831.16;;;9.04;100.00
72157;BME280;60035;52.122;5.406;2023-02-23T14:49:57;101832.84;;;9.06;100.00
72157;BME280;60035;52.122;5.406;2023-02-23T14:52:32;101830.28;;;9.02;100.00
72157;BME280;60035;52.122;5.406;2023-02-23T14:57:38;101825.19;;;8.97;100.00
72157;BME280;60035;52.122;5.406;2023-02-23T15:00:26;101826.09;;;8.96;100.00
72157;BME280;60035;52.122;5.406;2023-02-23T15:03:20;101831.22;;;8.90;100.00
72157;BME280;60035;52.122;5.406;2023-02-23T15:05:54;101833.81;;;8.85;100.00
72157;BME280;60035;52.122;5.406;2023-02-23T15:08:23;101835.53;;;8.81;100.00
72157;BME280;60035;52.122;5.406;2023-02-23T15:10:57;101841.50;;;8.80;100.00
72157;BME280;60035;52.122;5.406;2023-02-23T15:13:28;101842.34;;;8.79;100.00